createdAt,value
2023-01-07T00:01:39.035Z,14.70
2023-01-07T00:04:07.517Z,14.70
2023-01-07T00:06:36.754Z,14.70
2023-01-07T00:09:05.404Z,14.70
2023-01-07T00:11:34.907Z,14.70
2023-01-07T00:14:03.018Z,14.70
2023-01-07T00:16:31.435Z,14.70
2023-01-07T00:19:00.951Z,14.70
2023-01-07T00:21:28.888Z,14.70
2023-01-07T00:23:57.877Z,14.70
2023-01-07T00:26:26.484Z,14.70
2023-01-07T00:28:54.079Z,14.70
2023-01-07T00:31:23.269Z,14.70
2023-01-07T00:33:56.565Z,14.70
2023-01-07T00:36:25.084Z,14.70
2023-01-07T00:38:56.610Z,14.70
2023-01-07T00:41:24.047Z,14.70
2023-01-07T00:43:50.749Z,14.70
2023-01-07T00:46:17.653Z,14.70
2023-01-07T00:48:45.864Z,14.70
2023-01-07T00:51:15.061Z,14.70
2023-01-07T00:53:42.376Z,14.70
2023-01-07T00:56:14.553Z,14.70
2023-01-07T00:58:42.075Z,14.70
2023-01-07T01:01:10.639Z,14.70
2023-01-07T01:03:39.046Z,14.70
2023-01-07T01:06:13.632Z,14.70
2023-01-07T01:08:44.942Z,14.70
2023-01-07T01:11:13.912Z,14.70
2023-01-07T01:13:41.392Z,14.70
2023-01-07T01:16:14.325Z,14.60
2023-01-07T01:18:41.338Z,14.60
2023-01-07T01:21:11.038Z,14.60
2023-01-07T01:23:38.200Z,14.70
2023-01-07T01:26:10.984Z,14.60
2023-01-07T01:28:38.604Z,14.60
2023-01-07T01:31:06.276Z,14.60
2023-01-07T01:33:44.947Z,14.60
2023-01-07T01:36:13.029Z,14.60
2023-01-07T01:38:40.719Z,14.60
2023-01-07T01:41:07.732Z,14.60
2023-01-07T01:43:41.733Z,14.60
2023-01-07T01:46:17.802Z,14.60
2023-01-07T01:48:53.102Z,14.60
2023-01-07T01:51:24.383Z,14.60
2023-01-07T01:53:52.654Z,14.60
2023-01-07T01:56:24.521Z,14.60
2023-01-07T01:59:02.709Z,14.60
2023-01-07T02:01:33.624Z,14.60
2023-01-07T02:04:07.562Z,14.60
2023-01-07T02:06:36.332Z,14.60
2023-01-07T02:09:04.043Z,14.60
2023-01-07T02:11:31.889Z,14.60
2023-01-07T02:14:36.064Z,14.60
2023-01-07T02:17:16.588Z,14.50
2023-01-07T02:20:11.376Z,14.60
2023-01-07T02:23:15.303Z,14.50
2023-01-07T02:26:12.563Z,14.60
2023-01-07T02:29:12.204Z,14.50
2023-01-07T02:32:17.047Z,14.50
2023-01-07T02:34:56.816Z,14.50
2023-01-07T02:37:27.786Z,14.50
2023-01-07T02:39:59.610Z,14.50
2023-01-07T02:42:50.543Z,14.50
2023-01-07T02:45:33.373Z,14.50
2023-01-07T02:48:04.052Z,14.50
2023-01-07T02:50:31.216Z,14.60
2023-01-07T02:52:57.949Z,14.50
2023-01-07T02:55:44.810Z,14.50
2023-01-07T02:58:40.236Z,14.50
2023-01-07T03:01:23.381Z,14.50
2023-01-07T03:04:15.957Z,14.50
2023-01-07T03:07:24.993Z,14.50
2023-01-07T03:10:16.293Z,14.50
2023-01-07T03:12:49.964Z,14.50
2023-01-07T03:15:29.108Z,14.50
2023-01-07T03:18:08.174Z,14.50
2023-01-07T03:20:38.649Z,14.50
2023-01-07T03:23:09.659Z,14.50
2023-01-07T03:25:41.026Z,14.50
2023-01-07T03:28:09.743Z,14.50
2023-01-07T03:30:38.623Z,14.50
2023-01-07T03:33:16.366Z,14.50
2023-01-07T03:35:47.938Z,14.50
2023-01-07T03:38:16.667Z,14.50
2023-01-07T03:40:43.422Z,14.50
2023-01-07T03:43:14.700Z,14.50
2023-01-07T03:45:42.622Z,14.50
2023-01-07T03:48:09.460Z,14.50
2023-01-07T03:50:38.266Z,14.50
2023-01-07T03:53:06.190Z,14.50
2023-01-07T03:55:35.472Z,14.50
2023-01-07T03:58:02.290Z,14.50
2023-01-07T04:00:29.115Z,14.50
2023-01-07T04:03:03.645Z,14.50
2023-01-07T04:05:35.422Z,14.50
2023-01-07T04:08:02.425Z,14.50
2023-01-07T04:10:33.148Z,14.50
2023-01-07T04:12:59.884Z,14.50
2023-01-07T04:15:26.768Z,14.50
2023-01-07T04:17:53.646Z,14.50
2023-01-07T04:20:20.525Z,14.50
2023-01-07T04:22:47.243Z,14.50
2023-01-07T04:25:14.202Z,14.50
2023-01-07T04:27:41.892Z,14.50
2023-01-07T04:30:09.169Z,14.50
2023-01-07T04:32:35.944Z,14.50
2023-01-07T04:35:02.684Z,14.50
2023-01-07T04:37:30.695Z,14.50
2023-01-07T04:39:57.662Z,14.50
2023-01-07T04:42:24.484Z,14.50
2023-01-07T04:44:52.085Z,14.50
2023-01-07T04:47:18.822Z,14.50
2023-01-07T04:49:45.607Z,14.50
2023-01-07T04:52:12.474Z,14.50
2023-01-07T04:54:39.410Z,14.50
2023-01-07T04:57:06.532Z,14.40
2023-01-07T04:59:33.690Z,14.50
2023-01-07T05:02:02.603Z,14.50
2023-01-07T05:04:29.497Z,14.50
2023-01-07T05:06:57.465Z,14.40
2023-01-07T05:09:25.758Z,14.50
2023-01-07T05:11:52.843Z,14.50
2023-01-07T05:14:19.786Z,14.50
2023-01-07T05:16:50.565Z,14.50
2023-01-07T05:19:17.373Z,14.40
2023-01-07T05:21:47.391Z,14.50
2023-01-07T05:24:15.813Z,14.40
2023-01-07T05:26:42.888Z,14.40
2023-01-07T05:29:10.489Z,14.40
2023-01-07T05:31:38.212Z,14.40
2023-01-07T05:34:05.141Z,14.40
2023-01-07T05:36:32.273Z,14.50
2023-01-07T05:38:59.212Z,14.40
2023-01-07T05:41:26.472Z,14.50
2023-01-07T05:43:53.149Z,14.50
2023-01-07T05:46:20.013Z,14.50
2023-01-07T05:48:46.791Z,14.40
2023-01-07T05:51:13.634Z,14.40
2023-01-07T05:53:40.331Z,14.50
2023-01-07T05:56:07.259Z,14.40
2023-01-07T05:58:34.021Z,14.50
2023-01-07T06:01:00.807Z,14.50
2023-01-07T06:03:27.542Z,14.40
2023-01-07T06:05:54.317Z,14.40
2023-01-07T06:08:21.097Z,14.50
2023-01-07T06:10:47.829Z,14.40
2023-01-07T06:13:14.488Z,14.40
2023-01-07T06:15:41.195Z,14.40
2023-01-07T06:18:07.988Z,14.40
2023-01-07T06:20:34.826Z,14.50
2023-01-07T06:23:04.963Z,14.40
2023-01-07T06:25:31.740Z,14.40
2023-01-07T06:27:58.752Z,14.50
2023-01-07T06:30:25.711Z,14.50
2023-01-07T06:32:52.429Z,14.50
2023-01-07T06:35:19.110Z,14.40
2023-01-07T06:37:45.782Z,14.50
2023-01-07T06:40:12.812Z,14.40
2023-01-07T06:42:39.700Z,14.50
2023-01-07T06:45:07.074Z,14.40
2023-01-07T06:47:34.188Z,14.40
2023-01-07T06:50:00.891Z,14.40
2023-01-07T06:52:27.578Z,14.40
2023-01-07T06:54:54.405Z,14.40
2023-01-07T06:57:21.088Z,14.40
2023-01-07T06:59:47.830Z,14.40
2023-01-07T07:02:20.240Z,14.40
2023-01-07T07:04:47.057Z,14.40
2023-01-07T07:07:14.141Z,14.40
2023-01-07T07:09:41.054Z,14.40
2023-01-07T07:12:08.314Z,14.50
2023-01-07T07:14:35.668Z,14.50
2023-01-07T07:17:02.410Z,14.40
2023-01-07T07:19:29.256Z,14.40
2023-01-07T07:21:56.139Z,14.40
2023-01-07T07:24:23.286Z,14.40
2023-01-07T07:26:50.566Z,14.40
2023-01-07T07:29:17.329Z,14.40
2023-01-07T07:31:44.238Z,14.40
2023-01-07T07:34:11.157Z,14.40
2023-01-07T07:36:38.093Z,14.50
2023-01-07T07:39:04.984Z,14.40
2023-01-07T07:41:31.762Z,14.40
2023-01-07T07:44:00.212Z,14.40
2023-01-07T07:46:26.980Z,14.40
2023-01-07T07:48:53.729Z,14.40
2023-01-07T07:51:21.421Z,14.40
2023-01-07T07:53:48.068Z,14.40
2023-01-07T07:56:14.778Z,14.40
2023-01-07T07:58:43.085Z,14.40
2023-01-07T08:01:10.716Z,14.40
2023-01-07T08:03:37.679Z,14.40
2023-01-07T08:06:05.206Z,14.40
2023-01-07T08:08:32.135Z,14.40
2023-01-07T08:10:59.089Z,14.40
2023-01-07T08:13:25.866Z,14.40
2023-01-07T08:15:52.640Z,14.40
2023-01-07T08:18:19.818Z,14.40
2023-01-07T08:20:47.095Z,14.50
2023-01-07T08:23:13.819Z,14.50
2023-01-07T08:25:40.569Z,14.50
2023-01-07T08:28:07.419Z,14.50
2023-01-07T08:30:34.209Z,14.50
2023-01-07T08:33:02.839Z,14.50
2023-01-07T08:35:29.550Z,14.50
2023-01-07T08:38:08.415Z,14.50
2023-01-07T08:40:35.949Z,14.50
2023-01-07T08:43:04.849Z,14.50
2023-01-07T08:45:32.260Z,14.50
2023-01-07T08:47:59.660Z,14.50
2023-01-07T08:50:30.875Z,14.50
2023-01-07T08:52:58.055Z,14.50
2023-01-07T08:55:25.434Z,14.50
2023-01-07T08:57:52.580Z,14.60
2023-01-07T09:00:19.612Z,14.60
2023-01-07T09:02:46.491Z,14.60
2023-01-07T09:05:13.703Z,14.60
2023-01-07T09:07:40.683Z,14.60
2023-01-07T09:10:09.704Z,14.60
2023-01-07T09:12:37.045Z,14.60
2023-01-07T09:15:04.397Z,14.60
2023-01-07T09:17:31.124Z,14.60
2023-01-07T09:19:57.943Z,14.60
2023-01-07T09:22:24.672Z,14.60
2023-01-07T09:24:51.451Z,14.60
2023-01-07T09:27:18.229Z,14.60
2023-01-07T09:29:44.913Z,14.60
2023-01-07T09:32:11.654Z,14.60
2023-01-07T09:34:38.452Z,14.60
2023-01-07T09:37:06.939Z,14.60
2023-01-07T09:39:33.675Z,14.60
2023-01-07T09:42:12.693Z,14.60
2023-01-07T09:45:10.418Z,14.60
2023-01-07T09:47:39.855Z,14.60
2023-01-07T09:50:45.568Z,14.60
2023-01-07T09:53:22.629Z,14.60
2023-01-07T09:56:10.805Z,14.60
2023-01-07T09:58:47.373Z,14.50
2023-01-07T10:01:17.427Z,14.50
2023-01-07T10:04:09.044Z,14.50
2023-01-07T10:07:01.812Z,14.60
2023-01-07T10:09:38.448Z,14.60
2023-01-07T10:12:15.257Z,14.60
2023-01-07T10:15:02.328Z,14.60
2023-01-07T10:17:59.858Z,14.60
2023-01-07T10:20:57.414Z,14.60
2023-01-07T10:23:28.531Z,14.60
2023-01-07T10:25:56.913Z,14.60
2023-01-07T10:28:40.785Z,14.60
2023-01-07T10:31:16.547Z,14.60
2023-01-07T10:33:44.425Z,14.60
2023-01-07T10:36:34.909Z,14.60
2023-01-07T10:39:36.201Z,14.60
2023-01-07T10:42:11.892Z,14.60
2023-01-07T10:44:53.889Z,14.60
2023-01-07T10:47:48.196Z,14.60
2023-01-07T10:51:00.994Z,14.60
2023-01-07T10:53:46.321Z,14.60
2023-01-07T10:56:29.196Z,14.50
2023-01-07T10:59:00.755Z,14.60
2023-01-07T11:01:41.421Z,14.60
2023-01-07T11:04:22.773Z,14.60
2023-01-07T11:07:00.839Z,14.60
2023-01-07T11:09:38.407Z,14.60
2023-01-07T11:12:34.170Z,14.60
2023-01-07T11:15:06.594Z,14.60
2023-01-07T11:17:41.547Z,14.60
2023-01-07T11:20:09.219Z,14.60
2023-01-07T11:22:39.301Z,14.60
2023-01-07T11:25:24.474Z,14.60
2023-01-07T11:27:51.357Z,14.60
2023-01-07T11:30:25.989Z,14.60
2023-01-07T11:33:06.323Z,14.60
2023-01-07T11:35:33.401Z,14.60
2023-01-07T11:38:00.508Z,14.60
2023-01-07T11:40:30.031Z,14.60
2023-01-07T11:43:02.618Z,14.60
2023-01-07T11:45:36.428Z,14.60
2023-01-07T11:48:05.937Z,14.60
2023-01-07T11:50:57.366Z,14.60
2023-01-07T11:53:38.433Z,14.60
2023-01-07T11:56:14.631Z,14.60
2023-01-07T11:58:45.589Z,14.60
2023-01-07T12:01:16.623Z,14.60
2023-01-07T12:04:01.605Z,14.60
2023-01-07T12:06:32.753Z,14.60
2023-01-07T12:09:15.085Z,14.60
2023-01-07T12:11:44.090Z,14.60
2023-01-07T12:14:19.392Z,14.60
2023-01-07T12:16:47.495Z,14.60
2023-01-07T12:19:20.808Z,14.60
2023-01-07T12:22:06.609Z,14.60
2023-01-07T12:25:10.881Z,14.60
2023-01-07T12:28:09.753Z,14.60
2023-01-07T12:30:56.584Z,14.60
2023-01-07T12:33:35.215Z,14.60
2023-01-07T12:36:11.725Z,14.60
2023-01-07T12:38:53.624Z,14.60
2023-01-07T12:41:27.207Z,14.60
2023-01-07T12:44:03.010Z,14.60
2023-01-07T12:47:29.770Z,14.60
2023-01-07T12:50:12.497Z,14.60
2023-01-07T12:52:43.408Z,14.60
2023-01-07T12:55:21.401Z,14.60
2023-01-07T12:58:06.405Z,14.60
2023-01-07T13:00:43.016Z,14.60
2023-01-07T13:03:19.393Z,14.60
2023-01-07T13:05:56.486Z,14.60
2023-01-07T13:08:40.338Z,14.60
2023-01-07T13:11:46.370Z,14.60
2023-01-07T13:14:25.153Z,14.60
2023-01-07T13:16:51.973Z,14.60
2023-01-07T13:19:19.047Z,14.60
2023-01-07T13:21:49.139Z,14.60
2023-01-07T13:24:55.143Z,14.60
2023-01-07T13:27:59.598Z,14.60
2023-01-07T13:31:05.126Z,14.60
2023-01-07T13:33:45.711Z,14.60
2023-01-07T13:36:21.282Z,14.60
2023-01-07T13:38:58.078Z,14.60
2023-01-07T13:41:43.623Z,14.60
2023-01-07T13:44:15.835Z,14.60
2023-01-07T13:46:45.525Z,14.60
2023-01-07T13:49:32.095Z,14.60
2023-01-07T13:52:23.208Z,14.70
2023-01-07T13:54:52.971Z,14.70
2023-01-07T13:57:32.038Z,14.60
2023-01-07T14:00:00.707Z,14.70
2023-01-07T14:02:29.339Z,14.60
2023-01-07T14:05:11.491Z,14.60
2023-01-07T14:07:47.104Z,14.70
2023-01-07T14:10:24.332Z,14.70
2023-01-07T14:13:27.098Z,14.60
2023-01-07T14:15:59.473Z,14.70
2023-01-07T14:18:43.126Z,14.70
2023-01-07T14:21:15.579Z,14.60
2023-01-07T14:23:55.887Z,14.60
2023-01-07T14:26:28.156Z,14.60
2023-01-07T14:29:32.582Z,14.60
2023-01-07T14:32:30.247Z,14.60
2023-01-07T14:35:20.211Z,14.70
2023-01-07T14:37:47.021Z,14.60
2023-01-07T14:40:33.978Z,14.60
2023-01-07T14:43:02.993Z,14.60
2023-01-07T14:45:41.625Z,14.60
2023-01-07T14:48:08.327Z,14.60
2023-01-07T14:50:47.064Z,14.60
2023-01-07T14:53:28.923Z,14.60
2023-01-07T14:56:23.960Z,14.60
2023-01-07T14:58:50.649Z,14.60
2023-01-07T15:01:44.725Z,14.60
2023-01-07T15:04:24.607Z,14.60
2023-01-07T15:06:58.613Z,14.60
2023-01-07T15:10:14.700Z,14.60
2023-01-07T15:13:03.664Z,14.60
2023-01-07T15:16:03.008Z,14.70
2023-01-07T15:18:50.576Z,14.60
2023-01-07T15:21:55.056Z,14.60
2023-01-07T15:24:47.516Z,14.60
2023-01-07T15:27:21.300Z,14.60
2023-01-07T15:30:07.943Z,14.60
2023-01-07T15:32:48.595Z,14.60
2023-01-07T15:35:20.602Z,14.60
2023-01-07T15:37:49.416Z,14.60
2023-01-07T15:40:19.376Z,14.60
2023-01-07T15:42:48.820Z,14.60
2023-01-07T15:45:22.011Z,14.60
2023-01-07T15:47:49.275Z,14.60
2023-01-07T15:50:23.438Z,14.60
2023-01-07T15:53:01.932Z,14.60
2023-01-07T15:55:34.151Z,14.70
2023-01-07T15:58:13.152Z,14.60
2023-01-07T16:00:40.544Z,14.60
2023-01-07T16:03:07.960Z,14.60
2023-01-07T16:05:37.939Z,14.60
2023-01-07T16:08:05.414Z,14.60
2023-01-07T16:10:34.598Z,14.60
2023-01-07T16:13:04.616Z,14.60
2023-01-07T16:15:37.423Z,14.60
2023-01-07T16:18:24.635Z,14.60
2023-01-07T16:21:07.339Z,14.60
2023-01-07T16:23:38.526Z,14.60
2023-01-07T16:26:34.211Z,14.60
2023-01-07T16:29:09.946Z,14.70
2023-01-07T16:31:37.610Z,14.70
2023-01-07T16:34:18.650Z,14.70
2023-01-07T16:36:45.591Z,14.80
2023-01-07T16:39:20.563Z,14.90
2023-01-07T16:41:47.691Z,15.10
2023-01-07T16:44:42.114Z,15.20
2023-01-07T16:47:17.869Z,15.50
2023-01-07T16:49:45.290Z,15.80
2023-01-07T16:52:14.456Z,16.20
2023-01-07T16:54:44.174Z,16.60
2023-01-07T16:57:10.838Z,16.90
2023-01-07T16:59:42.059Z,17.20
2023-01-07T17:02:29.041Z,17.60
2023-01-07T17:05:12.405Z,17.90
2023-01-07T17:07:40.464Z,18.20
2023-01-07T17:10:17.082Z,18.40
2023-01-07T17:12:56.869Z,18.70
2023-01-07T17:15:32.579Z,19.00
2023-01-07T17:18:29.040Z,19.30
2023-01-07T17:21:00.776Z,19.50
2023-01-07T17:23:27.488Z,19.70
2023-01-07T17:25:58.623Z,19.80
2023-01-07T17:28:27.376Z,20.00
2023-01-07T17:30:54.635Z,20.10
2023-01-07T17:33:24.883Z,20.20
2023-01-07T17:35:54.140Z,20.30
2023-01-07T17:38:21.199Z,20.30
2023-01-07T17:40:48.218Z,20.40
2023-01-07T17:43:33.883Z,20.50
2023-01-07T17:46:01.636Z,20.50
2023-01-07T17:48:28.468Z,20.50
2023-01-07T17:50:58.300Z,20.50
2023-01-07T17:53:34.026Z,20.50
2023-01-07T17:56:01.547Z,20.60
2023-01-07T17:58:30.493Z,20.60
2023-01-07T18:00:59.052Z,20.50
2023-01-07T18:03:26.018Z,20.50
2023-01-07T18:05:52.822Z,20.50
2023-01-07T18:08:19.553Z,20.50
2023-01-07T18:11:05.338Z,20.50
2023-01-07T18:13:32.082Z,20.40
2023-01-07T18:15:59.159Z,20.40
2023-01-07T18:18:29.488Z,20.30
2023-01-07T18:20:57.796Z,20.30
2023-01-07T18:23:25.286Z,20.30
2023-01-07T18:25:52.209Z,20.30
2023-01-07T18:28:18.975Z,20.20
2023-01-07T18:30:45.680Z,20.20
2023-01-07T18:33:12.687Z,20.10
2023-01-07T18:35:40.653Z,20.10
2023-01-07T18:38:13.062Z,20.00
2023-01-07T18:40:40.178Z,20.00
2023-01-07T18:43:07.331Z,19.90
2023-01-07T18:45:34.104Z,19.90
2023-01-07T18:48:00.816Z,19.80
2023-01-07T18:50:27.522Z,19.80
2023-01-07T18:52:54.888Z,19.70
2023-01-07T18:55:22.202Z,19.70
2023-01-07T18:57:48.946Z,19.60
2023-01-07T19:00:16.207Z,19.60
2023-01-07T19:02:42.984Z,19.50
2023-01-07T19:05:10.877Z,19.50
2023-01-07T19:07:37.681Z,19.40
2023-01-07T19:10:05.640Z,19.40
2023-01-07T19:12:32.348Z,19.30
2023-01-07T19:14:59.712Z,19.30
2023-01-07T19:17:26.407Z,19.30
2023-01-07T19:19:53.113Z,19.20
2023-01-07T19:22:20.206Z,19.20
2023-01-07T19:24:46.946Z,19.10
2023-01-07T19:27:14.159Z,19.10
2023-01-07T19:29:40.945Z,19.00
2023-01-07T19:32:07.719Z,19.00
2023-01-07T19:34:35.236Z,19.00
2023-01-07T19:37:02.025Z,18.90
2023-01-07T19:39:28.714Z,18.90
2023-01-07T19:41:55.413Z,18.80
2023-01-07T19:44:22.260Z,18.80
2023-01-07T19:46:49.003Z,18.80
2023-01-07T19:49:15.925Z,18.70
2023-01-07T19:51:43.540Z,18.70
2023-01-07T19:54:14.446Z,18.70
2023-01-07T19:56:43.440Z,18.60
2023-01-07T19:59:10.738Z,18.60
2023-01-07T20:01:39.123Z,18.60
2023-01-07T20:04:08.190Z,18.60
2023-01-07T20:06:38.737Z,18.50
2023-01-07T20:09:10.572Z,18.40
2023-01-07T20:11:38.668Z,18.40
2023-01-07T20:14:07.287Z,18.40
2023-01-07T20:16:36.268Z,18.30
2023-01-07T20:19:03.553Z,18.30
2023-01-07T20:21:30.331Z,18.30
2023-01-07T20:23:57.148Z,18.20
2023-01-07T20:26:26.896Z,18.20
2023-01-07T20:28:54.358Z,18.20
2023-01-07T20:31:22.440Z,18.10
2023-01-07T20:33:52.139Z,18.10
2023-01-07T20:36:24.824Z,18.10
2023-01-07T20:38:51.845Z,18.10
2023-01-07T20:41:24.134Z,18.00
2023-01-07T20:43:56.498Z,18.00
2023-01-07T20:46:24.684Z,18.00
2023-01-07T20:48:52.201Z,18.00
2023-01-07T20:51:19.722Z,18.00
2023-01-07T20:53:47.221Z,17.90
2023-01-07T20:56:18.257Z,17.90
2023-01-07T20:58:45.099Z,17.90
2023-01-07T21:01:14.560Z,17.90
2023-01-07T21:03:47.021Z,17.90
2023-01-07T21:06:17.497Z,17.80
2023-01-07T21:08:46.394Z,17.80
2023-01-07T21:11:18.987Z,17.80
2023-01-07T21:13:46.816Z,17.80
2023-01-07T21:16:14.056Z,17.70
2023-01-07T21:18:41.153Z,17.70
2023-01-07T21:21:15.036Z,17.70
2023-01-07T21:23:41.838Z,17.70
2023-01-07T21:26:09.819Z,17.70
2023-01-07T21:28:37.047Z,17.60
2023-01-07T21:31:11.206Z,17.60
2023-01-07T21:33:39.854Z,17.60
2023-01-07T21:36:08.439Z,17.60
2023-01-07T21:38:35.230Z,17.60
2023-01-07T21:41:06.438Z,17.50
2023-01-07T21:43:33.157Z,17.50
2023-01-07T21:46:01.195Z,17.50
2023-01-07T21:48:27.978Z,17.50
2023-01-07T21:50:54.705Z,17.50
2023-01-07T21:53:21.410Z,17.50
2023-01-07T21:55:48.382Z,17.50
2023-01-07T21:58:15.304Z,17.50
2023-01-07T22:00:42.084Z,17.40
2023-01-07T22:03:10.352Z,17.40
2023-01-07T22:06:09.712Z,17.40
2023-01-07T22:08:38.620Z,17.40
2023-01-07T22:11:15.911Z,17.40
2023-01-07T22:13:43.302Z,17.40
2023-01-07T22:16:10.441Z,17.30
2023-01-07T22:18:37.158Z,17.30
2023-01-07T22:21:04.026Z,17.30
2023-01-07T22:23:30.908Z,17.30
2023-01-07T22:26:05.710Z,17.30
2023-01-07T22:28:35.225Z,17.30
2023-01-07T22:31:09.080Z,17.20
2023-01-07T22:33:36.221Z,17.20
2023-01-07T22:36:03.213Z,17.20
2023-01-07T22:38:31.853Z,17.20
2023-01-07T22:40:59.413Z,17.20
2023-01-07T22:43:26.431Z,17.10
2023-01-07T22:46:31.477Z,17.10
2023-01-07T22:48:59.024Z,17.10
2023-01-07T22:51:37.967Z,17.10
2023-01-07T22:54:06.010Z,17.10
2023-01-07T22:56:33.392Z,17.00
2023-01-07T22:59:00.217Z,17.00
2023-01-07T23:01:27.033Z,17.00
2023-01-07T23:03:53.767Z,16.90
2023-01-07T23:06:20.669Z,16.90
2023-01-07T23:08:47.370Z,16.90
2023-01-07T23:11:34.071Z,16.90
2023-01-07T23:14:01.612Z,16.90
2023-01-07T23:16:28.314Z,16.90
2023-01-07T23:18:54.983Z,16.90
2023-01-07T23:21:21.741Z,16.80
2023-01-07T23:23:48.444Z,16.80
2023-01-07T23:26:15.349Z,16.80
2023-01-07T23:28:42.158Z,16.80
2023-01-07T23:31:10.114Z,16.80
2023-01-07T23:33:36.918Z,16.80
2023-01-07T23:36:05.702Z,16.70
2023-01-07T23:38:32.827Z,16.70
2023-01-07T23:41:04.254Z,16.70
2023-01-07T23:43:31.379Z,16.70
2023-01-07T23:45:59.172Z,16.70
2023-01-07T23:48:27.461Z,16.70
2023-01-07T23:50:54.985Z,16.70
2023-01-07T23:53:22.363Z,16.60
2023-01-07T23:55:56.335Z,16.60
2023-01-07T23:58:30.353Z,16.60
